Time;durP1;ratioP1;P1;durP2;ratioP2;P2;SDS_P1;SDS_P2;PMS_P1;PMS_P2;Temp;Humidity;BMP_temperature;BMP_pressure;BME280_temperature;BME280_humidity;BME280_pressure;Samples;Min_cycle;Max_cycle;Signal;HPM_P1;HPM_P2
2024/02/07 00:01:28;;;;;;;;;5.25;4.00;;;;;8.21;96.04;98400.39;114540;243;40284;-52
2024/02/07 00:04:03;;;;;;;;;11.00;8.00;;;;;8.24;95.78;98393.20;114563;243;39538;-54
2024/02/07 00:06:37;;;;;;;;;4.00;4.00;;;;;8.26;95.78;98381.85;114207;244;41332;-54
2024/02/07 00:09:10;;;;;;;;;6.00;4.00;;;;;8.28;95.47;98380.85;114251;244;40431;-55
2024/02/07 00:11:44;;;;;;;;;3.00;3.00;;;;;8.31;95.46;98376.70;114664;241;160958;-55
2024/02/07 00:14:18;;;;;;;;;4.00;4.00;;;;;8.33;95.32;98374.31;114375;243;40905;-54
2024/02/07 00:16:52;;;;;;;;;4.00;3.00;;;;;8.37;94.94;98377.17;114214;239;161039;-55
2024/02/07 00:19:26;;;;;;;;;6.00;4.75;;;;;8.40;94.86;98371.33;114552;243;39607;-51
2024/02/07 00:22:00;;;;;;;;;5.00;4.50;;;;;8.43;94.57;98373.87;114600;243;39744;-51
2024/02/07 00:24:34;;;;;;;;;6.25;4.25;;;;;8.46;94.49;98375.68;114274;243;39233;-52
2024/02/07 00:27:08;;;;;;;;;6.25;5.50;;;;;8.46;94.36;98372.34;114587;243;39357;-52
2024/02/07 00:29:42;;;;;;;;;6.00;4.33;;;;;8.50;94.19;98370.89;114403;239;160951;-55
2024/02/07 00:32:16;;;;;;;;;3.75;2.50;;;;;8.51;94.27;98368.02;114573;243;41045;-54
2024/02/07 00:34:50;;;;;;;;;5.50;3.25;;;;;8.52;94.18;98363.80;114473;239;162408;-56
2024/02/07 00:37:23;;;;;;;;;4.67;3.00;;;;;8.53;94.21;98360.54;114663;242;40907;-55
2024/02/07 00:39:57;;;;;;;;;5.00;4.00;;;;;8.55;94.07;98357.81;114820;242;39308;-53
2024/02/07 00:42:31;;;;;;;;;6.00;5.00;;;;;8.58;93.73;98355.25;114286;242;42684;-53
2024/02/07 00:45:05;;;;;;;;;5.50;5.00;;;;;8.59;93.80;98359.79;114565;243;39655;-52
2024/02/07 00:47:40;;;;;;;;;6.00;5.00;;;;;8.59;93.87;98356.73;114416;239;161438;-52
2024/02/07 00:50:14;;;;;;;;;3.00;3.00;;;;;8.59;93.88;98353.91;114561;242;38945;-55
2024/02/07 00:52:48;;;;;;;;;7.00;6.00;;;;;8.59;93.71;98351.52;114402;239;160094;-55
2024/02/07 00:55:22;;;;;;;;;9.00;7.00;;;;;8.59;93.75;98343.77;114532;242;39402;-52
2024/02/07 00:57:56;;;;;;;;;2.75;2.00;;;;;8.60;93.76;98342.83;114534;243;40532;-51
2024/02/07 01:00:30;;;;;;;;;6.00;5.00;;;;;8.61;93.73;98336.59;114419;239;160808;-56
2024/02/07 01:03:04;;;;;;;;;5.00;4.00;;;;;8.61;93.87;98329.75;114614;243;40351;-54
2024/02/07 01:05:38;;;;;;;;;5.00;4.00;;;;;8.57;93.95;98334.73;114393;239;161190;-55
2024/02/07 01:08:12;;;;;;;;;4.00;3.00;;;;;8.60;93.74;98333.67;114593;242;41550;-53
2024/02/07 01:10:46;;;;;;;;;5.00;4.00;;;;;8.61;93.71;98325.83;114448;239;161802;-53
2024/02/07 01:13:20;;;;;;;;;6.00;5.00;;;;;8.63;93.67;98324.21;114570;242;39754;-52
2024/02/07 01:15:54;;;;;;;;;5.00;4.00;;;;;8.64;93.59;98320.98;114604;243;39656;-52
2024/02/07 01:18:28;;;;;;;;;5.75;5.00;;;;;8.66;93.15;98314.44;114489;239;160776;-55
2024/02/07 01:21:01;;;;;;;;;6.50;4.00;;;;;8.67;93.30;98310.71;114590;243;40266;-56
2024/02/07 01:23:35;;;;;;;;;2.50;2.00;;;;;8.67;93.37;98303.21;114444;239;161081;-56
2024/02/07 01:26:09;;;;;;;;;3.00;2.75;;;;;8.67;93.34;98303.92;114610;242;39418;-56
2024/02/07 01:28:43;;;;;;;;;7.25;4.75;;;;;8.65;93.48;98307.59;114451;239;161227;-56
2024/02/07 01:31:17;;;;;;;;;4.00;3.75;;;;;8.63;93.36;98302.97;114563;242;39985;-56
2024/02/07 01:33:51;;;;;;;;;4.00;3.00;;;;;8.63;93.26;98288.11;114554;243;40130;-52
2024/02/07 01:36:24;;;;;;;;;7.00;5.00;;;;;8.66;93.03;98290.67;114394;239;160749;-52
2024/02/07 01:38:59;;;;;;;;;2.00;2.00;;;;;8.65;93.06;98276.95;114579;243;39309;-56
2024/02/07 01:44:20;;;;;;;;;4.00;4.00;;;;;8.61;92.67;98270.33;114554;242;40265;-55
2024/02/07 01:49:45;;;;;;;;;4.00;4.00;;;;;8.64;92.53;98261.27;114515;242;40588;-51
2024/02/07 01:52:21;;;;;;;;;4.00;3.00;;;;;8.63;92.56;98255.80;114439;239;161105;-52
2024/02/07 01:54:55;;;;;;;;;5.00;4.00;;;;;8.64;92.25;98252.23;114557;242;40108;-52
2024/02/07 01:57:29;;;;;;;;;2.00;2.00;;;;;8.67;92.05;98256.24;114573;243;39566;-52
2024/02/07 02:00:04;;;;;;;;;2.00;2.00;;;;;8.70;92.10;98252.70;114433;239;161075;-53
2024/02/07 02:02:39;;;;;;;;;4.00;2.67;;;;;8.72;91.99;98250.55;114559;243;41303;-53
2024/02/07 02:05:13;;;;;;;;;3.75;3.00;;;;;8.74;91.85;98250.98;114430;239;160949;-52
2024/02/07 02:07:48;;;;;;;;;2.50;2.50;;;;;8.76;91.71;98244.64;114576;242;39227;-52
2024/02/07 02:10:22;;;;;;;;;5.00;4.00;;;;;8.78;91.66;98241.23;114438;239;161156;-52
2024/02/07 02:12:56;;;;;;;;;8.00;5.00;;;;;8.79;91.54;98240.70;114341;243;39734;-52
2024/02/07 02:15:30;;;;;;;;;3.00;2.50;;;;;8.79;91.27;98235.35;114510;243;39561;-52
2024/02/07 02:18:05;;;;;;;;;3.00;3.00;;;;;8.80;91.36;98236.92;114378;239;160283;-53
2024/02/07 02:20:39;;;;;;;;;4.00;3.00;;;;;8.82;91.08;98234.92;114550;243;39288;-52
2024/02/07 02:23:49;;;;;;;;;3.00;2.75;;;;;8.81;90.76;98237.16;114394;242;160736;-55
2024/02/07 02:26:53;;;;;;;;;3.75;3.00;;;;;8.79;90.82;98229.52;114534;242;39839;-56
2024/02/07 02:29:36;;;;;;;;;3.00;2.00;;;;;8.79;90.68;98234.52;114429;239;161004;-52
2024/02/07 02:32:11;;;;;;;;;3.00;2.00;;;;;8.79;90.66;98233.50;114598;242;39087;-52
2024/02/07 02:34:46;;;;;;;;;3.00;3.00;;;;;8.80;90.48;98222.88;114402;239;162157;-52
2024/02/07 02:37:21;;;;;;;;;2.00;2.00;;;;;8.82;90.69;98223.57;114061;242;652298;-52
2024/02/07 02:39:55;;;;;;;;;4.00;3.00;;;;;8.83;90.42;98220.59;114968;243;40842;-54
2024/02/07 02:42:30;;;;;;;;;3.75;3.00;;;;;8.86;90.06;98218.81;114409;239;160761;-53
2024/02/07 02:45:04;;;;;;;;;3.00;3.00;;;;;8.88;90.21;98215.38;114586;243;40090;-52
2024/02/07 02:47:38;;;;;;;;;5.00;4.00;;;;;8.89;89.94;98203.81;114415;239;160945;-51
2024/02/07 02:50:13;;;;;;;;;4.67;4.00;;;;;8.90;89.78;98206.86;114586;242;40982;-55
2024/02/07 02:52:46;;;;;;;;;3.00;2.00;;;;;8.86;89.98;98205.84;114452;240;160428;-55
2024/02/07 02:55:21;;;;;;;;;3.00;3.00;;;;;8.86;89.84;98199.98;114556;242;39363;-55
2024/02/07 02:58:00;;;;;;;;;4.00;3.00;;;;;8.84;89.75;98201.98;114558;243;40453;-55
2024/02/07 03:00:34;;;;;;;;;4.00;4.00;;;;;8.84;89.52;98191.20;114266;241;39460;-56
2024/02/07 03:03:08;;;;;;;;;3.00;2.00;;;;;8.82;89.52;98187.23;114589;243;39744;-55
2024/02/07 03:05:58;;;;;;;;;2.00;2.00;;;;;8.81;89.75;98184.89;114391;239;160986;-56
2024/02/07 03:08:42;;;;;;;;;3.50;3.00;;;;;8.82;89.65;98185.07;114561;243;39251;-52
2024/02/07 03:11:16;;;;;;;;;2.00;2.00;;;;;8.85;89.48;98177.65;114408;239;161539;-51
2024/02/07 03:13:50;;;;;;;;;4.50;4.00;;;;;8.86;89.37;98177.48;114563;243;39991;-55
2024/02/07 03:16:24;;;;;;;;;5.00;5.00;;;;;8.88;89.23;98172.26;114405;239;160892;-55
2024/02/07 03:18:58;;;;;;;;;4.00;3.00;;;;;8.87;89.58;98165.23;114536;243;40329;-51
2024/02/07 03:21:32;;;;;;;;;5.00;4.00;;;;;8.86;89.24;98155.57;114573;243;39909;-51
2024/02/07 03:24:09;;;;;;;;;3.00;3.00;;;;;8.87;89.33;98155.59;114406;239;160264;-55
2024/02/07 03:26:44;;;;;;;;;2.67;2.00;;;;;8.85;89.20;98152.51;114589;243;41724;-56
2024/02/07 03:29:18;;;;;;;;;5.00;4.00;;;;;8.83;89.19;98151.81;114461;239;161374;-53
2024/02/07 03:31:53;;;;;;;;;2.00;1.75;;;;;8.82;89.18;98154.71;114540;243;39890;-52
2024/02/07 03:34:26;;;;;;;;;5.00;2.00;;;;;8.85;88.70;98145.40;114437;239;161204;-51
2024/02/07 03:37:00;;;;;;;;;6.25;3.50;;;;;8.88;88.68;98139.99;114555;243;39783;-51
2024/02/07 03:39:34;;;;;;;;;3.00;2.00;;;;;8.93;88.16;98137.02;114575;243;39327;-55
2024/02/07 03:42:08;;;;;;;;;2.25;2.00;;;;;8.90;88.57;98134.33;114419;239;160927;-54
2024/02/07 03:44:55;;;;;;;;;3.67;3.33;;;;;8.94;88.60;98130.04;114551;243;40517;-51
2024/02/07 03:47:30;;;;;;;;;3.00;3.00;;;;;8.94;88.33;98128.66;114398;239;160599;-51
2024/02/07 03:50:05;;;;;;;;;5.00;4.00;;;;;8.98;88.31;98131.42;114565;243;39681;-52
2024/02/07 03:52:39;;;;;;;;;4.00;3.00;;;;;8.95;88.25;98129.70;114406;239;160456;-52
2024/02/07 03:55:14;;;;;;;;;1.75;1.50;;;;;8.94;88.23;98123.52;114578;243;40369;-53
2024/02/07 03:57:48;;;;;;;;;4.00;3.00;;;;;8.92;88.23;98119.89;114555;243;39606;-55
2024/02/07 04:00:22;;;;;;;;;3.00;2.00;;;;;8.89;88.32;98115.95;114378;239;161090;-56
2024/02/07 04:02:57;;;;;;;;;2.67;2.00;;;;;8.86;88.75;98117.33;114570;243;39793;-56
2024/02/07 04:05:31;;;;;;;;;3.33;2.00;;;;;8.85;88.92;98119.33;114398;239;161167;-55
2024/02/07 04:08:05;;;;;;;;;4.00;3.00;;;;;8.83;89.21;98115.36;114588;242;40004;-55
2024/02/07 04:10:41;;;;;;;;;3.00;3.00;;;;;8.80;89.52;98113.63;114406;239;161172;-54
2024/02/07 05:17:16;;;;;;;;;0.00;0.00;;;;;6.81;92.96;98267.44;114430;239;161015;-56
2024/02/07 05:19:50;;;;;;;;;0.00;0.00;;;;;6.78;93.15;98273.77;114581;242;39623;-56
2024/02/07 05:22:24;;;;;;;;;0.00;0.00;;;;;6.77;93.15;98273.98;114478;239;161014;-57
2024/02/07 05:25:00;;;;;;;;;0.00;0.00;;;;;6.67;93.37;98280.32;114551;243;40403;-57
2024/02/07 05:27:34;;;;;;;;;0.00;0.00;;;;;6.59;93.63;98288.99;114568;243;39401;-57
2024/02/07 05:30:14;;;;;;;;;0.00;0.00;;;;;6.57;93.78;98295.52;114412;241;160833;-57
2024/02/07 05:32:48;;;;;;;;;0.00;0.00;;;;;6.54;93.94;98299.34;114557;243;40943;-56
2024/02/07 05:35:22;;;;;;;;;0.00;0.00;;;;;6.48;94.17;98298.00;114427;243;160771;-53
2024/02/07 05:37:57;;;;;;;;;0.00;0.00;;;;;6.38;94.16;98298.23;114537;243;39617;-53
2024/02/07 05:40:31;;;;;;;;;0.00;0.00;;;;;6.24;93.82;98305.80;114420;239;161962;-57
2024/02/07 05:43:05;;;;;;;;;0.00;0.00;;;;;6.18;93.70;98310.77;114535;243;40163;-55
2024/02/07 05:45:39;;;;;;;;;0.00;0.00;;;;;6.00;93.69;98317.24;114576;243;39584;-55
2024/02/07 05:48:13;;;;;;;;;0.00;0.00;;;;;5.92;93.86;98319.52;114413;239;160168;-54
2024/02/07 05:50:46;;;;;;;;;0.00;0.00;;;;;5.86;93.86;98324.11;114707;242;41544;-54
2024/02/07 05:53:20;;;;;;;;;0.00;0.00;;;;;5.78;93.74;98329.46;114479;239;159974;-53
2024/02/07 05:55:54;;;;;;;;;0.00;0.00;;;;;5.69;93.76;98336.98;114568;243;40359;-53
2024/02/07 05:58:28;;;;;;;;;0.00;0.00;;;;;5.53;94.00;98340.05;114469;239;161175;-53
2024/02/07 06:01:01;;;;;;;;;0.00;0.00;;;;;5.53;94.14;98340.41;114520;243;40066;-53
2024/02/07 06:03:36;;;;;;;;;0.00;0.00;;;;;5.39;94.14;98351.25;114580;243;40900;-55
2024/02/07 06:06:10;;;;;;;;;0.00;0.00;;;;;5.38;94.38;98353.80;114428;242;160773;-56
2024/02/07 06:08:47;;;;;;;;;0.00;0.00;;;;;5.36;94.39;98360.04;114710;242;39761;-54
2024/02/07 06:11:28;;;;;;;;;0.00;0.00;;;;;5.34;94.45;98361.52;114478;239;161037;-54
2024/02/07 19:57:46;;;;;;;;;3.00;2.25;;;;;0.61;100.00;98951.63;110209;268;62294;-50
2024/02/07 20:00:23;;;;;;;;;3.00;2.50;;;;;0.61;100.00;98960.69;111449;252;159689;-52
2024/02/07 20:03:01;;;;;;;;;5.00;4.75;;;;;0.63;100.00;98964.21;112118;248;39558;-54
2024/02/07 20:05:39;;;;;;;;;5.00;3.00;;;;;0.65;100.00;98967.61;111965;246;161251;-52
2024/02/07 20:08:20;;;;;;;;;7.00;4.00;;;;;0.65;100.00;98973.76;112087;248;39809;-55
2024/02/07 20:10:58;;;;;;;;;5.00;4.00;;;;;0.69;100.00;98975.10;111608;247;703246;-55
2024/02/07 20:13:40;;;;;;;;;4.00;3.00;;;;;0.69;100.00;98974.00;112154;247;39633;-50
2024/02/07 20:16:17;;;;;;;;;5.00;4.00;;;;;0.73;100.00;98979.16;112125;247;41306;-50
2024/02/07 20:19:00;;;;;;;;;4.25;3.00;;;;;0.73;100.00;98984.80;112328;242;160329;-56
2024/02/07 20:21:42;;;;;;;;;8.00;6.25;;;;;0.67;100.00;98984.31;112590;245;39229;-56
2024/02/07 20:24:23;;;;;;;;;6.00;4.00;;;;;0.66;100.00;98985.35;112423;242;160250;-52
2024/02/07 20:27:07;;;;;;;;;6.00;5.00;;;;;0.64;100.00;98986.04;112554;245;39226;-51
2024/02/07 20:29:46;;;;;;;;;5.00;4.50;;;;;0.62;100.00;98990.19;112465;242;160846;-56
2024/02/07 20:32:23;;;;;;;;;7.00;6.00;;;;;0.59;100.00;98997.84;112567;245;39310;-55
2024/02/07 20:35:04;;;;;;;;;8.00;5.25;;;;;0.59;100.00;98999.49;112604;246;39233;-55
2024/02/07 20:37:43;;;;;;;;;10.00;6.75;;;;;0.57;100.00;99002.22;112418;246;39737;-55
2024/02/07 20:40:19;;;;;;;;;4.00;3.25;;;;;0.55;100.00;99000.41;112623;245;39195;-54
2024/02/07 20:42:58;;;;;;;;;3.75;3.00;;;;;0.58;100.00;99003.91;112378;245;160399;-55
2024/02/07 20:45:32;;;;;;;;;5.00;4.00;;;;;0.57;100.00;99005.75;112633;245;39551;-54
2024/02/07 20:48:08;;;;;;;;;5.00;4.00;;;;;0.59;100.00;99004.98;112419;244;160097;-52
2024/02/07 20:50:45;;;;;;;;;5.25;4.00;;;;;0.58;100.00;99010.20;112435;246;39763;-56
2024/02/07 20:53:20;;;;;;;;;5.00;4.00;;;;;0.62;100.00;99011.80;112361;242;160462;-52
2024/02/07 20:55:56;;;;;;;;;6.00;4.67;;;;;0.63;100.00;99011.38;112444;245;40740;-52
2024/02/07 20:58:41;;;;;;;;;4.00;3.00;;;;;0.63;100.00;99017.05;112625;245;39573;-54
2024/02/07 21:01:21;;;;;;;;;4.00;3.00;;;;;0.66;100.00;99013.85;112311;245;160501;-54
2024/02/07 21:03:57;;;;;;;;;5.00;4.00;;;;;0.68;100.00;99018.83;112638;246;40610;-55
2024/02/07 21:06:32;;;;;;;;;4.00;3.00;;;;;0.67;100.00;99024.21;112423;242;160526;-56
2024/02/07 21:09:13;;;;;;;;;4.00;3.67;;;;;0.73;100.00;99023.34;112498;245;39416;-55
2024/02/07 21:11:53;;;;;;;;;6.00;4.00;;;;;0.75;100.00;99024.74;112303;243;160536;-54
2024/02/07 21:14:34;;;;;;;;;6.25;5.75;;;;;0.80;100.00;99029.60;112419;246;39678;-51
2024/02/07 21:17:16;;;;;;;;;3.00;2.00;;;;;0.83;100.00;99025.57;112473;247;39895;-51
2024/02/07 21:19:56;;;;;;;;;5.00;3.00;;;;;0.88;100.00;99026.41;112224;247;39665;-52
2024/02/07 21:22:35;;;;;;;;;6.00;4.00;;;;;0.96;100.00;99030.67;112419;246;39748;-52
2024/02/07 21:25:11;;;;;;;;;4.00;3.00;;;;;1.05;100.00;99031.52;112340;243;160423;-52
2024/02/07 21:27:48;;;;;;;;;6.00;5.00;;;;;1.07;100.00;99038.89;112438;245;39388;-52
2024/02/07 21:30:26;;;;;;;;;4.25;4.00;;;;;1.06;100.00;99044.14;112397;243;160377;-55
2024/02/07 21:33:07;;;;;;;;;5.00;4.00;;;;;1.12;100.00;99042.27;112485;245;39734;-55
2024/02/07 21:35:45;;;;;;;;;6.25;4.00;;;;;1.15;99.99;99046.56;112326;243;160437;-56
2024/02/07 21:38:25;;;;;;;;;3.00;3.00;;;;;1.17;99.99;99050.59;112461;245;39106;-52
2024/02/07 21:41:05;;;;;;;;;5.00;4.00;;;;;1.16;99.93;99054.70;112459;245;39966;-52
2024/02/07 21:43:44;;;;;;;;;3.00;3.00;;;;;1.18;99.96;99059.34;112334;244;159907;-55
2024/02/07 21:46:19;;;;;;;;;4.00;3.00;;;;;1.18;99.87;99058.28;112410;246;41092;-56
2024/02/07 21:48:54;;;;;;;;;5.00;4.00;;;;;1.18;99.79;99062.04;112360;244;160349;-53
2024/02/07 21:51:35;;;;;;;;;5.00;3.00;;;;;1.17;99.78;99067.18;112189;247;40270;-53
2024/02/07 21:54:20;;;;;;;;;4.00;4.00;;;;;1.14;99.72;99066.81;112123;246;160366;-55
2024/02/07 21:56:58;;;;;;;;;4.50;3.75;;;;;1.14;99.79;99068.23;112396;246;39554;-55
2024/02/07 21:59:36;;;;;;;;;7.00;5.00;;;;;1.14;99.73;99067.56;112356;244;160078;-56
2024/02/07 22:02:14;;;;;;;;;5.00;3.00;;;;;1.16;99.64;99073.66;112357;246;39303;-56
2024/02/07 22:04:48;;;;;;;;;3.00;2.00;;;;;1.17;99.51;99072.33;112131;247;40212;-55
2024/02/07 22:07:28;;;;;;;;;4.33;3.00;;;;;1.17;99.45;99072.00;112266;244;161240;-56
2024/02/07 22:10:09;;;;;;;;;4.50;3.00;;;;;1.15;99.40;99074.02;112458;246;41667;-56
2024/02/07 22:12:51;;;;;;;;;2.00;2.00;;;;;1.15;99.43;99077.90;112356;244;160082;-56
2024/02/07 22:15:32;;;;;;;;;4.00;3.00;;;;;1.16;99.50;99080.40;112184;247;40377;-54
2024/02/07 22:18:09;;;;;;;;;4.00;3.00;;;;;1.18;99.40;99086.88;112098;244;160081;-55
2024/02/07 22:20:44;;;;;;;;;5.75;4.00;;;;;1.19;99.27;99092.95;112415;246;41415;-55
2024/02/07 22:23:21;;;;;;;;;3.00;3.00;;;;;1.18;99.24;99096.02;112497;246;40249;-54
2024/02/07 22:26:05;;;;;;;;;4.00;4.00;;;;;1.19;99.17;99092.52;112155;246;40470;-54
2024/02/07 22:28:46;;;;;;;;;5.00;4.00;;;;;1.20;99.12;99094.35;112458;246;39864;-54
2024/02/07 22:31:29;;;;;;;;;4.00;3.00;;;;;1.26;99.14;99102.28;112318;244;160102;-54
2024/02/07 22:34:09;;;;;;;;;3.00;2.67;;;;;1.23;98.99;99100.64;112152;247;39703;-51
2024/02/07 22:36:46;;;;;;;;;3.00;2.00;;;;;1.20;98.93;99103.08;112152;244;160507;-50
2024/02/07 22:39:23;;;;;;;;;2.00;2.00;;;;;1.14;98.95;99105.89;112487;244;40713;-54
2024/02/07 22:42:00;;;;;;;;;3.00;2.00;;;;;1.10;98.90;99105.25;112332;241;161402;-55
2024/02/07 22:44:39;;;;;;;;;3.00;3.00;;;;;1.04;98.87;99108.00;112453;244;40209;-54
2024/02/07 22:47:18;;;;;;;;;3.00;2.00;;;;;1.08;98.90;99100.48;112440;245;40262;-54
2024/02/07 22:49:56;;;;;;;;;2.00;2.00;;;;;1.04;98.78;99098.77;112477;244;40687;-54
2024/02/07 22:52:35;;;;;;;;;2.50;2.00;;;;;0.98;98.80;99103.67;112446;244;39943;-53
2024/02/07 22:55:11;;;;;;;;;3.50;3.00;;;;;0.96;98.62;99105.67;112345;243;160481;-55
2024/02/07 22:57:49;;;;;;;;;2.00;1.00;;;;;0.94;98.54;99107.81;112435;244;41194;-55
2024/02/07 23:00:32;;;;;;;;;3.50;2.75;;;;;0.91;98.52;99103.13;112395;244;160240;-55
2024/02/07 23:03:07;;;;;;;;;2.00;1.00;;;;;0.86;98.55;99111.14;112472;244;40387;-54
2024/02/07 23:05:45;;;;;;;;;4.33;3.00;;;;;0.92;98.51;99113.69;112327;241;160519;-55
2024/02/07 23:08:20;;;;;;;;;4.00;2.00;;;;;0.92;98.39;99116.15;112497;244;40967;-56
2024/02/07 23:10:58;;;;;;;;;2.75;2.00;;;;;0.91;98.39;99115.44;112429;244;39474;-55
2024/02/07 23:13:36;;;;;;;;;3.00;2.00;;;;;0.83;98.26;99119.13;112338;241;160297;-52
2024/02/07 23:16:21;;;;;;;;;3.00;2.00;;;;;0.73;98.12;99115.15;112416;244;41123;-52
2024/02/07 23:18:57;;;;;;;;;2.50;1.50;;;;;0.72;98.21;99112.62;112375;241;159929;-52
2024/02/07 23:21:37;;;;;;;;;4.00;3.00;;;;;0.65;98.00;99114.55;112478;244;40573;-52
2024/02/07 23:24:18;;;;;;;;;2.00;1.75;;;;;0.59;98.08;99117.84;112365;241;160732;-51
2024/02/07 23:27:00;;;;;;;;;6.00;2.75;;;;;0.56;98.08;99120.42;112432;244;39785;-51
2024/02/07 23:29:44;;;;;;;;;2.00;1.00;;;;;0.55;98.20;99118.02;112333;241;160697;-55
2024/02/07 23:32:28;;;;;;;;;4.00;3.00;;;;;0.53;98.14;99122.36;112491;244;39318;-55
2024/02/07 23:35:06;;;;;;;;;3.00;3.00;;;;;0.47;98.08;99124.73;112515;244;39902;-54
2024/02/07 23:37:46;;;;;;;;;4.00;3.00;;;;;0.38;97.95;99128.20;112415;241;160072;-54
2024/02/07 23:40:22;;;;;;;;;5.00;4.00;;;;;0.34;98.04;99130.36;112493;244;41174;-55
2024/02/07 23:42:58;;;;;;;;;3.00;2.00;;;;;0.29;98.06;99130.34;112433;244;184331;-55
2024/02/07 23:45:38;;;;;;;;;4.75;4.00;;;;;0.30;98.11;99136.81;112492;244;39632;-55
2024/02/07 23:48:19;;;;;;;;;3.00;3.00;;;;;0.34;98.18;99137.02;112361;241;160233;-54
2024/02/07 23:50:56;;;;;;;;;3.67;3.00;;;;;0.31;97.94;99137.94;112478;244;40648;-55
2024/02/07 23:53:37;;;;;;;;;3.00;2.00;;;;;0.27;97.91;99135.50;112358;241;160613;-51
2024/02/07 23:56:15;;;;;;;;;3.00;3.00;;;;;0.27;97.87;99143.70;112509;244;39304;-50
2024/02/07 23:58:53;;;;;;;;;4.00;3.00;;;;;0.26;97.97;99147.98;112448;244;40737;-54
